Time;durP1;ratioP1;P1;durP2;ratioP2;P2;SDS_P1;SDS_P2;PMS_P1;PMS_P2;Temp;Humidity;BMP_temperature;BMP_pressure;BME280_temperature;BME280_humidity;BME280_pressure;Samples;Min_cycle;Max_cycle;Signal;HPM_P1;HPM_P2
2023/12/18 00:02:07;;;;;;;18.52;6.07;;;7.70;99.90;;;;;;5056373;28;20041;-27
2023/12/18 00:04:32;;;;;;;27.42;6.72;;;7.70;99.90;;;;;;5056373;28;20045;-28
2023/12/18 00:06:58;;;;;;;23.42;6.38;;;7.70;99.90;;;;;;5056364;28;20071;-27
2023/12/18 00:09:24;;;;;;;17.90;5.32;;;7.80;99.90;;;;;;5065730;28;20075;-27
2023/12/18 00:11:50;;;;;;;23.27;5.70;;;7.80;99.90;;;;;;5076220;28;20117;-27
2023/12/18 00:14:16;;;;;;;24.38;6.53;;;7.80;99.90;;;;;;5076263;28;20051;-27
2023/12/18 00:16:42;;;;;;;23.35;6.25;;;7.80;99.90;;;;;;5074946;28;20102;-27
2023/12/18 00:19:08;;;;;;;23.83;6.28;;;7.90;99.90;;;;;;5074628;28;20053;-27
2023/12/18 00:21:34;;;;;;;24.63;5.93;;;7.90;99.90;;;;;;5074673;28;20048;-27
2023/12/18 00:24:00;;;;;;;24.60;5.25;;;7.90;99.90;;;;;;5062876;28;20119;-27
2023/12/18 00:26:26;;;;;;;23.75;5.45;;;8.00;99.90;;;;;;5054926;28;20049;-27
2023/12/18 00:28:51;;;;;;;14.77;4.82;;;8.00;99.90;;;;;;5058188;28;20045;-27
2023/12/18 00:31:17;;;;;;;16.83;4.80;;;8.00;99.90;;;;;;5055891;28;20391;-27
2023/12/18 00:33:43;;;;;;;17.90;4.55;;;8.00;99.90;;;;;;5055745;28;20136;-27
2023/12/18 00:36:09;;;;;;;20.15;6.30;;;8.00;99.90;;;;;;5040179;28;20041;-27
2023/12/18 00:38:36;;;;;;;15.60;4.32;;;8.00;99.90;;;;;;5059285;28;20041;-28
2023/12/18 00:41:02;;;;;;;11.20;3.33;;;8.00;99.90;;;;;;5055930;28;20391;-27
2023/12/18 00:43:27;;;;;;;25.98;5.75;;;8.00;99.90;;;;;;5054441;28;20052;-29
2023/12/18 00:45:53;;;;;;;16.58;5.30;;;8.10;99.90;;;;;;5055623;28;20487;-28
2023/12/18 00:48:19;;;;;;;19.45;4.95;;;8.00;99.90;;;;;;5057741;28;20044;-28
2023/12/18 00:50:45;;;;;;;16.58;5.22;;;8.00;99.90;;;;;;5055909;28;21435;-28
2023/12/18 00:53:16;;;;;;;14.90;3.40;;;8.00;99.90;;;;;;5056867;28;20513;-27
2023/12/18 00:55:43;;;;;;;17.50;4.70;;;8.00;99.90;;;;;;5055697;28;20053;-28
2023/12/18 00:58:09;;;;;;;20.80;5.65;;;8.00;99.90;;;;;;5055355;28;20041;-27
2023/12/18 01:00:36;;;;;;;21.20;4.60;;;8.00;99.90;;;;;;5055333;28;20040;-28
2023/12/18 01:03:03;;;;;;;14.68;4.07;;;8.00;99.90;;;;;;5053807;28;20045;-28
2023/12/18 01:05:28;;;;;;;11.77;4.07;;;8.00;99.90;;;;;;5055352;28;20087;-28
2023/12/18 01:07:54;;;;;;;21.23;5.07;;;8.10;99.90;;;;;;5059481;28;20448;-28
2023/12/18 01:10:20;;;;;;;19.05;4.95;;;8.00;99.90;;;;;;5054844;28;20052;-28
2023/12/18 01:12:46;;;;;;;19.33;4.60;;;8.00;99.90;;;;;;5053497;28;20403;-28
2023/12/18 01:15:11;;;;;;;19.40;4.32;;;8.00;99.90;;;;;;5058620;28;20073;-28
2023/12/18 01:17:37;;;;;;;17.73;5.03;;;8.00;99.90;;;;;;5055007;28;20457;-28
2023/12/18 01:20:07;;;;;;;17.60;4.28;;;8.00;99.90;;;;;;5053808;28;20041;-28
2023/12/18 01:22:33;;;;;;;15.70;3.55;;;8.00;99.90;;;;;;5064174;28;20469;-28
2023/12/18 01:24:58;;;;;;;20.17;5.32;;;8.00;99.90;;;;;;5073632;28;20049;-28
2023/12/18 01:27:25;;;;;;;15.57;4.43;;;8.10;99.90;;;;;;5075287;28;20094;-28
2023/12/18 01:29:51;;;;;;;18.60;4.72;;;8.00;99.90;;;;;;5060599;28;20045;-28
2023/12/18 01:32:17;;;;;;;19.77;4.00;;;8.00;99.90;;;;;;5053535;28;20095;-28
2023/12/18 01:34:42;;;;;;;17.63;4.28;;;8.10;99.90;;;;;;5053722;28;20387;-28
2023/12/18 01:37:08;;;;;;;27.20;5.10;;;8.00;99.90;;;;;;5056190;28;20048;-28
2023/12/18 01:39:36;;;;;;;10.18;2.45;;;8.10;99.90;;;;;;5054737;28;20052;-28
2023/12/18 01:42:02;;;;;;;16.40;5.13;;;8.10;99.90;;;;;;5056079;28;20081;-28
2023/12/18 01:44:28;;;;;;;20.77;4.07;;;8.10;99.90;;;;;;5055058;28;20045;-28
2023/12/18 01:46:55;;;;;;;18.80;5.78;;;8.10;99.90;;;;;;5054473;28;20045;-28
2023/12/18 01:49:21;;;;;;;9.15;2.90;;;8.20;99.90;;;;;;5053706;28;20045;-28
2023/12/18 01:51:47;;;;;;;18.45;3.45;;;8.20;99.90;;;;;;5055048;28;20047;-28
2023/12/18 01:54:14;;;;;;;19.98;3.97;;;8.30;99.90;;;;;;5069595;28;20049;-29
2023/12/18 01:56:41;;;;;;;14.30;4.32;;;8.30;99.90;;;;;;5074803;28;20066;-28
2023/12/18 01:59:09;;;;;;;13.32;3.22;;;8.40;99.90;;;;;;5074195;28;20275;-28
2023/12/18 02:01:36;;;;;;;17.73;3.90;;;8.40;99.90;;;;;;5074104;28;20040;-28
2023/12/18 02:04:03;;;;;;;15.13;3.28;;;8.40;99.90;;;;;;5074140;28;20169;-28
2023/12/18 02:06:29;;;;;;;17.63;3.92;;;8.40;99.90;;;;;;5068344;28;20044;-29
2023/12/18 02:08:58;;;;;;;20.05;4.50;;;8.40;99.90;;;;;;5054064;28;20044;-29
2023/12/18 02:11:25;;;;;;;12.65;2.25;;;8.40;99.90;;;;;;5054310;28;20044;-28
2023/12/18 02:13:51;;;;;;;17.65;3.30;;;8.40;99.90;;;;;;5054547;28;20067;-29
2023/12/18 02:16:17;;;;;;;10.35;2.38;;;8.40;99.90;;;;;;5053966;28;20174;-29
2023/12/18 02:18:47;;;;;;;16.45;3.47;;;8.40;99.90;;;;;;5053879;28;20059;-29
2023/12/18 02:21:19;;;;;;;17.92;2.88;;;8.40;99.90;;;;;;5051048;28;20495;-29
2023/12/18 02:23:46;;;;;;;15.60;3.63;;;8.40;99.90;;;;;;5068740;28;20036;-28
2023/12/18 02:26:12;;;;;;;10.95;2.97;;;8.50;99.90;;;;;;5055715;28;20052;-28
2023/12/18 02:28:38;;;;;;;14.85;3.40;;;8.40;99.90;;;;;;5053728;28;20045;-29
2023/12/18 02:31:07;;;;;;;14.95;2.63;;;8.40;99.90;;;;;;5054756;28;20052;-28
2023/12/18 02:33:32;;;;;;;23.90;3.45;;;8.40;99.90;;;;;;5054299;28;20045;-28
2023/12/18 02:36:02;;;;;;;15.90;3.17;;;8.40;99.90;;;;;;5053711;28;20068;-29
2023/12/18 02:38:27;;;;;;;13.75;3.30;;;8.40;99.90;;;;;;5057056;28;20080;-28
2023/12/18 02:40:53;;;;;;;11.27;2.67;;;8.40;99.90;;;;;;5053115;28;20138;-28
2023/12/18 02:43:19;;;;;;;9.60;2.72;;;8.40;99.90;;;;;;5054519;28;20045;-29
2023/12/18 02:45:45;;;;;;;15.98;2.88;;;8.40;99.90;;;;;;5053488;28;20041;-29
2023/12/18 02:48:11;;;;;;;10.23;2.15;;;8.40;99.90;;;;;;5053805;28;20049;-28
2023/12/18 02:50:36;;;;;;;12.85;2.28;;;8.40;99.90;;;;;;5053527;28;20391;-29
2023/12/18 02:53:02;;;;;;;19.88;4.03;;;8.50;99.90;;;;;;5059450;28;20124;-30
2023/12/18 02:55:28;;;;;;;11.38;3.03;;;8.40;99.90;;;;;;5073522;28;20044;-29
2023/12/18 02:57:54;;;;;;;13.55;3.08;;;8.40;99.90;;;;;;5062168;28;20048;-29
2023/12/18 03:00:20;;;;;;;13.00;2.38;;;8.30;99.90;;;;;;5054000;28;20548;-29
2023/12/18 03:02:46;;;;;;;17.63;3.47;;;8.50;99.90;;;;;;5052455;28;20471;-29
2023/12/18 03:05:12;;;;;;;16.60;2.85;;;8.40;99.90;;;;;;5055342;28;20494;-29
2023/12/18 03:07:38;;;;;;;15.38;2.97;;;8.40;99.90;;;;;;5057885;28;20051;-29
2023/12/18 03:10:04;;;;;;;15.73;3.60;;;8.50;99.90;;;;;;5036629;28;20045;-29
2023/12/18 03:12:30;;;;;;;16.00;3.47;;;8.40;99.90;;;;;;5053888;28;20041;-29
2023/12/18 03:14:56;;;;;;;17.52;3.00;;;8.50;99.90;;;;;;5052366;28;20045;-29
2023/12/18 03:17:21;;;;;;;17.27;3.03;;;8.40;99.90;;;;;;5054244;28;20040;-29
2023/12/18 03:19:47;;;;;;;16.83;3.88;;;8.40;99.90;;;;;;5053216;28;20057;-29
2023/12/18 03:22:13;;;;;;;15.68;3.15;;;8.40;99.90;;;;;;5064920;28;20143;-29
2023/12/18 03:24:39;;;;;;;12.57;2.63;;;8.40;99.90;;;;;;5072560;28;20059;-29
2023/12/18 03:27:06;;;;;;;10.73;2.30;;;8.40;99.90;;;;;;5073106;28;20048;-30
2023/12/18 03:29:32;;;;;;;12.68;2.10;;;8.40;99.90;;;;;;5073167;28;20501;-29
2023/12/18 03:31:57;;;;;;;14.05;3.03;;;8.40;99.90;;;;;;5071950;28;20056;-29
2023/12/18 03:34:23;;;;;;;16.90;3.40;;;8.40;99.90;;;;;;5077399;28;20052;-29
2023/12/18 03:36:49;;;;;;;20.83;4.18;;;8.30;99.90;;;;;;5057331;28;20501;-29
2023/12/18 03:39:14;;;;;;;17.30;3.28;;;8.30;99.90;;;;;;5056924;28;20495;-30
2023/12/18 03:41:40;;;;;;;14.60;3.28;;;8.30;99.90;;;;;;5055613;28;20497;-30
2023/12/18 03:44:06;;;;;;;13.38;2.72;;;8.20;99.90;;;;;;5057044;28;20179;-29
2023/12/18 03:46:32;;;;;;;16.63;3.85;;;8.20;99.90;;;;;;5057737;28;20489;-29
2023/12/18 03:48:58;;;;;;;9.45;2.28;;;8.20;99.90;;;;;;5055571;28;20044;-29
2023/12/18 03:51:24;;;;;;;14.38;3.65;;;8.20;99.90;;;;;;5055757;28;20069;-30
2023/12/18 03:53:50;;;;;;;17.95;3.45;;;8.30;99.90;;;;;;5055645;28;20053;-29
2023/12/18 03:56:15;;;;;;;14.38;2.85;;;8.20;99.90;;;;;;5055431;28;20103;-29
2023/12/18 03:58:41;;;;;;;16.25;3.17;;;8.20;99.90;;;;;;5057356;28;20099;-29
2023/12/18 04:01:07;;;;;;;18.00;3.38;;;8.30;99.90;;;;;;5055247;28;20510;-30
2023/12/18 04:03:33;;;;;;;11.50;3.80;;;8.30;99.90;;;;;;5056455;28;20059;-30
2023/12/18 04:05:58;;;;;;;14.95;3.30;;;8.30;99.90;;;;;;5055533;28;20045;-31
2023/12/18 04:08:24;;;;;;;26.15;5.05;;;8.30;99.90;;;;;;5056341;28;20049;-29
2023/12/18 04:10:50;;;;;;;16.30;3.55;;;8.30;99.90;;;;;;5056853;28;20106;-29
2023/12/18 04:13:16;;;;;;;14.25;3.13;;;8.30;99.90;;;;;;5059187;28;20048;-28
2023/12/18 04:15:41;;;;;;;17.77;3.53;;;8.30;99.90;;;;;;5061885;28;20094;-28
2023/12/18 04:18:08;;;;;;;17.73;3.50;;;8.30;99.90;;;;;;5056153;28;20057;-30
2023/12/18 04:20:34;;;;;;;17.58;3.47;;;8.30;99.90;;;;;;5066116;28;20056;-30
2023/12/18 04:23:00;;;;;;;8.70;2.80;;;8.30;99.90;;;;;;5076030;28;20494;-33
2023/12/18 04:25:25;;;;;;;15.13;3.13;;;8.30;99.90;;;;;;5076043;28;20080;-30
2023/12/18 04:27:52;;;;;;;14.32;2.80;;;8.30;99.90;;;;;;5075921;28;20055;-31
2023/12/18 04:30:18;;;;;;;22.33;3.50;;;8.30;99.90;;;;;;5076508;28;20049;-30
2023/12/18 04:32:44;;;;;;;15.48;2.50;;;8.30;99.90;;;;;;5075940;28;20048;-30
2023/12/18 04:35:10;;;;;;;19.48;3.30;;;8.30;99.90;;;;;;5071756;28;20422;-30
2023/12/18 04:37:36;;;;;;;8.70;1.90;;;8.30;99.90;;;;;;5076379;28;20052;-31
2023/12/18 04:40:03;;;;;;;17.52;4.05;;;8.30;99.90;;;;;;5058041;28;20059;-30
2023/12/18 04:42:29;;;;;;;22.13;2.70;;;8.30;99.90;;;;;;5076206;28;20098;-30
2023/12/18 04:44:55;;;;;;;16.75;4.10;;;8.30;99.90;;;;;;5075523;28;20056;-30
2023/12/18 04:47:21;;;;;;;15.52;3.03;;;8.30;99.90;;;;;;5075600;28;20048;-31
2023/12/18 04:49:47;;;;;;;14.90;3.53;;;8.30;99.90;;;;;;5067881;28;20052;-31
2023/12/18 04:52:13;;;;;;;17.88;4.38;;;8.20;99.90;;;;;;5075649;28;20080;-30
2023/12/18 04:54:39;;;;;;;19.88;4.57;;;8.20;99.90;;;;;;5075540;28;20048;-30
2023/12/18 04:57:04;;;;;;;17.20;4.20;;;8.10;99.90;;;;;;5075539;28;20398;-30
2023/12/18 04:59:30;;;;;;;16.90;4.53;;;8.00;99.90;;;;;;5065541;28;20061;-30
2023/12/18 05:01:57;;;;;;;18.88;4.68;;;8.00;99.90;;;;;;5055573;28;20426;-30
2023/12/18 05:04:23;;;;;;;20.23;4.50;;;8.00;99.90;;;;;;5055583;28;20048;-31
2023/12/18 05:06:49;;;;;;;17.20;4.20;;;7.90;99.90;;;;;;5071963;28;20052;-30
2023/12/18 05:09:15;;;;;;;15.98;4.43;;;7.90;99.90;;;;;;5075215;28;20059;-30
2023/12/18 05:11:41;;;;;;;19.33;5.15;;;8.00;99.90;;;;;;5075162;28;20044;-30
2023/12/18 05:14:08;;;;;;;20.05;4.60;;;8.00;99.90;;;;;;5075126;28;20055;-30
2023/12/18 05:16:34;;;;;;;16.90;4.00;;;8.00;99.90;;;;;;5075615;28;20080;-30
2023/12/18 05:19:00;;;;;;;24.30;4.28;;;8.00;99.90;;;;;;5071246;28;20060;-31
2023/12/18 05:21:26;;;;;;;26.25;5.05;;;8.00;99.90;;;;;;5073010;28;20384;-30
2023/12/18 05:23:52;;;;;;;22.52;4.50;;;8.10;99.90;;;;;;5073742;28;20048;-31
2023/12/18 05:26:18;;;;;;;16.90;4.43;;;8.00;99.90;;;;;;5062833;28;20395;-30
2023/12/18 05:28:43;;;;;;;18.58;3.90;;;8.00;99.90;;;;;;5053670;28;20131;-30
2023/12/18 05:31:10;;;;;;;19.83;4.72;;;8.10;99.90;;;;;;5054335;28;20067;-30
2023/12/18 05:33:36;;;;;;;17.65;5.20;;;8.00;99.90;;;;;;5055326;28;20093;-32
2023/12/18 05:36:01;;;;;;;22.10;4.80;;;8.10;99.90;;;;;;5070588;28;20084;-31
2023/12/18 05:38:27;;;;;;;22.48;4.70;;;8.10;99.90;;;;;;5075437;28;20101;-31
2023/12/18 05:40:53;;;;;;;15.68;4.43;;;8.10;99.90;;;;;;5074509;28;20517;-30
2023/12/18 05:43:19;;;;;;;18.65;4.43;;;8.10;99.90;;;;;;5075052;28;20086;-31
2023/12/18 05:45:44;;;;;;;16.17;5.53;;;7.90;99.90;;;;;;5074484;28;20048;-31
2023/12/18 05:48:10;;;;;;;13.82;5.00;;;8.10;99.90;;;;;;5072972;28;20143;-31
2023/12/18 05:50:36;;;;;;;17.35;5.07;;;8.10;99.90;;;;;;5070939;28;20040;-32
2023/12/18 05:53:02;;;;;;;26.45;5.25;;;8.10;99.90;;;;;;5073138;28;20032;-31
2023/12/18 05:55:28;;;;;;;19.20;6.55;;;8.10;99.90;;;;;;5074090;28;20052;-31
2023/12/18 05:57:53;;;;;;;16.55;5.55;;;8.00;99.90;;;;;;5074235;28;20048;-31
2023/12/18 06:00:19;;;;;;;22.95;6.40;;;8.10;99.90;;;;;;5074771;28;20056;-31
2023/12/18 06:02:45;;;;;;;23.92;6.07;;;8.10;99.90;;;;;;5061457;28;20045;-32
2023/12/18 06:05:11;;;;;;;16.75;4.70;;;8.10;99.90;;;;;;5056447;28;20049;-31
2023/12/18 06:07:37;;;;;;;17.40;4.97;;;8.10;99.90;;;;;;5054425;28;20044;-31
2023/12/18 06:10:03;;;;;;;29.58;5.78;;;8.10;99.90;;;;;;5036517;28;20095;-31
2023/12/18 06:12:29;;;;;;;18.27;6.38;;;8.10;99.90;;;;;;5054012;28;20052;-31
2023/12/18 06:14:54;;;;;;;18.00;5.43;;;8.10;99.90;;;;;;5057523;28;20049;-31
2023/12/18 06:17:20;;;;;;;21.67;7.30;;;8.20;99.90;;;;;;5058596;28;20475;-31
2023/12/18 06:19:47;;;;;;;21.25;6.80;;;8.10;99.90;;;;;;5073903;28;20127;-31
2023/12/18 06:22:13;;;;;;;28.90;5.93;;;8.10;99.90;;;;;;5074164;28;20056;-32
2023/12/18 06:24:39;;;;;;;21.80;6.75;;;8.10;99.90;;;;;;5073859;28;20046;-31
2023/12/18 06:27:05;;;;;;;21.70;6.53;;;8.10;99.90;;;;;;5073087;28;20087;-31
2023/12/18 06:29:31;;;;;;;18.15;5.97;;;8.10;99.90;;;;;;5065928;28;20079;-30
2023/12/18 06:31:57;;;;;;;18.45;7.03;;;8.10;99.90;;;;;;5055122;28;20213;-31
2023/12/18 06:34:23;;;;;;;20.98;7.50;;;8.10;99.90;;;;;;5056145;28;20441;-31
2023/12/18 06:36:49;;;;;;;19.63;6.93;;;8.10;99.90;;;;;;5073649;28;20048;-32
2023/12/18 06:39:15;;;;;;;22.10;6.50;;;8.00;99.90;;;;;;5071515;28;20131;-31
2023/12/18 06:41:41;;;;;;;25.77;7.78;;;8.00;99.90;;;;;;5055742;28;20041;-31
2023/12/18 06:44:06;;;;;;;18.67;6.72;;;8.00;99.90;;;;;;5053620;28;20049;-31
2023/12/18 06:46:34;;;;;;;26.00;8.77;;;7.90;99.90;;;;;;5065219;28;20106;-31
2023/12/18 06:49:01;;;;;;;20.40;7.57;;;7.90;99.90;;;;;;5073647;28;20048;-31
2023/12/18 06:51:27;;;;;;;20.35;6.32;;;7.90;99.90;;;;;;5073545;28;20478;-31
2023/12/18 06:53:52;;;;;;;25.00;6.75;;;7.90;99.90;;;;;;5074409;28;20066;-32
2023/12/18 06:56:18;;;;;;;27.33;8.48;;;7.90;99.90;;;;;;5073490;28;20501;-31
2023/12/18 06:58:44;;;;;;;19.85;8.10;;;7.90;99.90;;;;;;5073522;28;20078;-32
2023/12/18 07:01:10;;;;;;;21.63;8.38;;;7.90;99.90;;;;;;5057908;28;20533;-32
2023/12/18 07:03:36;;;;;;;22.77;6.47;;;7.90;99.90;;;;;;5055091;28;20045;-32
2023/12/18 07:06:02;;;;;;;23.90;8.00;;;7.90;99.90;;;;;;5053744;28;20522;-32
2023/12/18 07:08:29;;;;;;;19.35;7.72;;;7.90;99.90;;;;;;5057378;28;20129;-32
2023/12/18 07:10:58;;;;;;;11.80;7.10;;;7.90;99.90;;;;;;5057383;28;20053;-32
2023/12/18 07:13:24;;;;;;;24.77;7.85;;;7.90;99.90;;;;;;5057938;28;20052;-32
2023/12/18 07:15:50;;;;;;;18.60;6.97;;;7.90;99.90;;;;;;5059030;28;20044;-32
2023/12/18 07:18:17;;;;;;;20.48;6.95;;;7.90;99.90;;;;;;5077375;28;20048;-32
2023/12/18 07:20:44;;;;;;;25.80;7.30;;;7.90;99.90;;;;;;5076978;28;20064;-33
2023/12/18 07:23:10;;;;;;;23.13;8.48;;;7.90;99.90;;;;;;5077201;28;20147;-33
2023/12/18 07:25:37;;;;;;;20.73;9.32;;;7.90;99.90;;;;;;5076154;28;20048;-32
2023/12/18 07:28:07;;;;;;;18.25;8.02;;;7.90;99.90;;;;;;5077958;28;20123;-32
2023/12/18 07:30:34;;;;;;;24.23;9.55;;;7.90;99.90;;;;;;5072030;28;20058;-32
2023/12/18 07:32:59;;;;;;;17.48;9.18;;;7.80;99.90;;;;;;5069867;28;20040;-32
2023/12/18 07:35:25;;;;;;;17.17;8.07;;;7.80;99.90;;;;;;5056977;28;20056;-32
2023/12/18 07:37:51;;;;;;;24.25;8.90;;;7.90;99.90;;;;;;5056777;28;20072;-32
2023/12/18 07:40:17;;;;;;;21.90;8.73;;;7.90;99.90;;;;;;5039374;28;20491;-32
2023/12/18 07:42:43;;;;;;;21.98;9.55;;;7.90;99.90;;;;;;5039791;28;20037;-33
2023/12/18 07:45:10;;;;;;;27.55;11.05;;;7.80;99.90;;;;;;5066877;28;20049;-32
2023/12/18 07:47:37;;;;;;;22.23;10.15;;;7.80;99.90;;;;;;5076812;28;20127;-32
2023/12/18 07:50:07;;;;;;;33.95;10.95;;;7.90;99.90;;;;;;5059052;28;20055;-32
2023/12/18 07:52:34;;;;;;;27.88;10.25;;;7.80;99.90;;;;;;5065874;28;20064;-32
2023/12/18 07:54:59;;;;;;;30.38;10.63;;;7.80;99.90;;;;;;5058463;28;20045;-32
2023/12/18 07:57:25;;;;;;;22.80;9.63;;;7.80;99.90;;;;;;5058176;28;20118;-33
2023/12/18 07:59:51;;;;;;;26.80;9.50;;;7.90;99.90;;;;;;5059518;28;20052;-33
2023/12/18 08:02:17;;;;;;;20.60;7.97;;;7.90;99.90;;;;;;5056073;28;20041;-32
2023/12/18 08:04:43;;;;;;;21.92;8.52;;;7.90;99.90;;;;;;5056464;28;20503;-32
2023/12/18 08:07:09;;;;;;;29.38;10.10;;;7.90;99.90;;;;;;5055726;28;20040;-33
2023/12/18 08:09:34;;;;;;;19.65;7.90;;;7.90;99.90;;;;;;5056316;28;20045;-32
2023/12/18 08:12:00;;;;;;;19.08;8.15;;;7.90;99.90;;;;;;5056205;28;20060;-33
2023/12/18 08:14:26;;;;;;;20.75;10.02;;;7.90;99.90;;;;;;5057659;28;20040;-32
2023/12/18 08:16:52;;;;;;;26.90;11.75;;;7.90;99.90;;;;;;5055580;28;20407;-33
2023/12/18 08:19:18;;;;;;;28.40;10.50;;;7.90;99.90;;;;;;5056034;28;20045;-32
2023/12/18 08:21:44;;;;;;;22.75;8.63;;;7.90;99.90;;;;;;5055553;28;20056;-32
2023/12/18 08:24:10;;;;;;;20.27;7.82;;;7.90;99.90;;;;;;5021892;28;20061;-32
2023/12/18 08:26:36;;;;;;;29.00;10.25;;;7.90;99.90;;;;;;5055911;28;20041;-33
2023/12/18 08:29:04;;;;;;;22.60;9.68;;;7.90;99.90;;;;;;5055914;28;20110;-32
2023/12/18 08:31:30;;;;;;;35.13;12.20;;;7.90;99.90;;;;;;5055568;28;20491;-33
2023/12/18 08:33:56;;;;;;;31.27;11.18;;;7.90;99.90;;;;;;5054730;28;20045;-33
2023/12/18 08:36:21;;;;;;;22.20;9.68;;;7.90;99.90;;;;;;5055567;28;20094;-33
2023/12/18 08:38:47;;;;;;;24.13;11.52;;;7.90;99.90;;;;;;5054553;28;20053;-34
2023/12/18 08:41:13;;;;;;;24.55;10.57;;;7.90;99.90;;;;;;5054496;28;20049;-32
2023/12/18 08:43:39;;;;;;;34.13;11.50;;;8.00;99.90;;;;;;5022381;28;20045;-33
2023/12/18 08:46:05;;;;;;;17.58;9.13;;;7.90;99.90;;;;;;5055628;28;20491;-33
2023/12/18 08:48:31;;;;;;;29.60;12.73;;;8.00;99.90;;;;;;5054389;28;20325;-33
2023/12/18 08:50:57;;;;;;;32.05;11.75;;;8.00;99.90;;;;;;5037784;28;20069;-33
2023/12/18 08:53:23;;;;;;;23.67;11.32;;;7.90;99.90;;;;;;5054332;28;20048;-33
2023/12/18 08:55:48;;;;;;;25.10;11.93;;;7.90;99.90;;;;;;5055416;28;20049;-33
2023/12/18 08:58:14;;;;;;;23.45;10.85;;;7.90;99.90;;;;;;5055419;28;20053;-33
2023/12/18 09:00:40;;;;;;;31.83;10.68;;;7.90;99.90;;;;;;5055400;28;20073;-33
2023/12/18 09:03:06;;;;;;;24.48;11.57;;;8.00;99.90;;;;;;5055762;28;20452;-33
2023/12/18 09:05:32;;;;;;;22.98;10.27;;;8.00;99.90;;;;;;5037594;28;20499;-33
2023/12/18 09:07:57;;;;;;;27.23;10.90;;;7.90;99.90;;;;;;5054005;28;20057;-34
2023/12/18 09:10:24;;;;;;;25.75;9.63;;;8.00;99.90;;;;;;5055131;28;20045;-33
2023/12/18 09:12:51;;;;;;;30.10;11.57;;;8.00;99.90;;;;;;5054388;28;20052;-34
2023/12/18 09:15:16;;;;;;;34.58;13.77;;;8.00;99.90;;;;;;5054021;28;20048;-33
2023/12/18 09:17:42;;;;;;;31.00;12.13;;;8.00;99.90;;;;;;5055072;28;20053;-34
2023/12/18 09:20:08;;;;;;;26.27;12.95;;;8.00;99.90;;;;;;5037231;28;20049;-33
2023/12/18 09:22:36;;;;;;;23.45;9.63;;;8.10;99.90;;;;;;5054477;28;20048;-34
2023/12/18 09:25:02;;;;;;;22.55;8.48;;;8.10;99.90;;;;;;5055397;28;20151;-34
2023/12/18 09:27:29;;;;;;;27.63;11.65;;;8.10;99.90;;;;;;5054864;28;20064;-35
2023/12/18 09:29:54;;;;;;;30.55;10.63;;;8.10;99.90;;;;;;5054522;28;20480;-35
2023/12/18 09:32:20;;;;;;;23.83;10.27;;;8.10;99.90;;;;;;5053506;28;20052;-34
2023/12/18 09:34:47;;;;;;;30.05;11.05;;;8.20;99.90;;;;;;5055175;28;20045;-34
2023/12/18 09:37:13;;;;;;;28.02;11.38;;;8.20;99.90;;;;;;5054863;28;20074;-34
2023/12/18 09:39:42;;;;;;;24.90;9.68;;;8.20;99.90;;;;;;5037040;28;20471;-34
2023/12/18 09:42:10;;;;;;;19.80;10.13;;;8.20;99.90;;;;;;5036503;28;20102;-35
2023/12/18 09:44:37;;;;;;;31.55;12.10;;;8.20;99.90;;;;;;5054546;28;20048;-36
2023/12/18 09:47:03;;;;;;;25.08;12.23;;;8.20;99.90;;;;;;5055192;28;20127;-35
2023/12/18 09:49:30;;;;;;;26.75;11.05;;;8.20;99.90;;;;;;5054132;28;20491;-37
2023/12/18 09:52:07;;;;;;;16.75;8.13;;;8.10;99.90;;;;;;5054374;28;20084;-34
2023/12/18 09:54:34;;;;;;;20.00;8.77;;;8.20;99.90;;;;;;5054343;28;20048;-36
2023/12/18 09:57:03;;;;;;;30.17;10.25;;;8.20;99.90;;;;;;5054234;28;20053;-35
2023/12/18 09:59:29;;;;;;;25.98;11.68;;;8.30;99.90;;;;;;5054175;28;20471;-38
2023/12/18 10:01:54;;;;;;;29.60;9.82;;;8.30;99.90;;;;;;5053286;28;20049;-35
2023/12/18 10:04:20;;;;;;;28.25;11.60;;;8.30;99.90;;;;;;5052855;28;20041;-37
2023/12/18 10:06:48;;;;;;;21.98;9.13;;;8.30;99.90;;;;;;5054052;28;20087;-37
2023/12/18 10:09:15;;;;;;;24.70;10.60;;;8.30;99.90;;;;;;5054051;28;20049;-37
2023/12/18 10:11:44;;;;;;;38.75;12.35;;;8.40;99.90;;;;;;5053718;28;20398;-36
2023/12/18 10:14:13;;;;;;;24.63;9.02;;;8.40;99.90;;;;;;5052986;28;20041;-37
2023/12/18 10:16:39;;;;;;;27.08;10.57;;;8.40;99.90;;;;;;5053193;28;20049;-37
2023/12/18 10:19:06;;;;;;;27.80;12.43;;;8.50;99.90;;;;;;5052690;28;20049;-38
2023/12/18 10:21:32;;;;;;;27.23;11.65;;;8.50;99.90;;;;;;5053651;28;20135;-37
2023/12/18 10:23:58;;;;;;;26.38;12.25;;;8.50;99.90;;;;;;5053749;28;20080;-37
2023/12/18 10:26:24;;;;;;;31.17;12.57;;;8.50;99.90;;;;;;5052483;28;20048;-36
2023/12/18 10:28:52;;;;;;;20.70;11.85;;;8.60;99.90;;;;;;5053781;28;20058;-38
2023/12/18 10:31:19;;;;;;;30.25;11.85;;;8.60;99.90;;;;;;5053723;28;20044;-38
2023/12/18 10:33:45;;;;;;;24.17;11.20;;;8.50;99.90;;;;;;5053316;28;20417;-38
2023/12/18 10:36:11;;;;;;;35.45;12.73;;;8.50;99.90;;;;;;5052214;28;20099;-38
2023/12/18 10:38:41;;;;;;;27.45;10.23;;;8.50;99.90;;;;;;5054234;28;20454;-38
2023/12/18 10:41:09;;;;;;;22.67;10.88;;;8.50;99.90;;;;;;5053603;28;20087;-38
2023/12/18 10:43:36;;;;;;;17.63;8.57;;;8.40;99.90;;;;;;5051610;28;20095;-39
2023/12/18 10:46:03;;;;;;;23.17;9.85;;;8.40;99.90;;;;;;5035926;28;20126;-39
2023/12/18 10:48:29;;;;;;;28.95;10.63;;;8.40;99.90;;;;;;5053521;28;20049;-40
2023/12/18 10:50:57;;;;;;;24.42;11.80;;;8.40;99.90;;;;;;5052328;28;20127;-39
2023/12/18 10:53:27;;;;;;;26.48;12.02;;;8.40;99.90;;;;;;5052456;28;20106;-39
2023/12/18 10:55:54;;;;;;;34.85;11.10;;;8.40;99.90;;;;;;5052117;28;20048;-40
2023/12/18 10:58:20;;;;;;;24.55;12.32;;;8.40;99.90;;;;;;5053414;28;20049;-39
2023/12/18 11:00:48;;;;;;;22.70;11.77;;;8.40;99.90;;;;;;5053397;28;20053;-40
2023/12/18 11:03:16;;;;;;;30.20;13.05;;;8.40;99.90;;;;;;5053784;28;20040;-39
2023/12/18 11:05:42;;;;;;;30.73;13.52;;;8.30;99.90;;;;;;5054206;28;20409;-39
2023/12/18 11:08:10;;;;;;;27.17;13.00;;;8.40;99.90;;;;;;5051877;28;20503;-39
2023/12/18 11:10:36;;;;;;;21.95;9.75;;;8.40;99.90;;;;;;5052203;28;20061;-40
2023/12/18 11:13:11;;;;;;;25.30;9.95;;;8.40;99.90;;;;;;5053281;28;20045;-40
2023/12/18 11:15:48;;;;;;;24.27;11.07;;;8.40;99.90;;;;;;5053907;28;20053;-40
2023/12/18 11:18:20;;;;;;;23.73;11.32;;;8.40;99.90;;;;;;5053397;28;20052;-40
2023/12/18 11:20:47;;;;;;;35.97;13.93;;;8.40;99.90;;;;;;5053110;28;20049;-40
2023/12/18 11:23:13;;;;;;;25.92;11.82;;;8.40;99.90;;;;;;5052084;28;20506;-40
2023/12/18 11:25:43;;;;;;;32.47;14.43;;;8.40;99.90;;;;;;5053083;28;20048;-40
2023/12/18 11:28:09;;;;;;;22.92;12.27;;;8.40;99.90;;;;;;5053593;28;20037;-41
2023/12/18 11:30:44;;;;;;;31.65;13.98;;;8.40;99.90;;;;;;5053133;28;20084;-41
2023/12/18 11:33:13;;;;;;;30.55;14.50;;;8.40;99.90;;;;;;5053949;28;20090;-41
2023/12/18 11:35:47;;;;;;;30.52;13.65;;;8.40;99.90;;;;;;5052976;28;20107;-40
2023/12/18 11:38:17;;;;;;;27.45;11.77;;;8.40;99.90;;;;;;5053143;28;20060;-41
2023/12/18 11:40:49;;;;;;;24.70;11.85;;;8.40;99.90;;;;;;5053040;28;20049;-41
2023/12/18 11:43:38;;;;;;;23.95;10.38;;;8.40;99.90;;;;;;5051736;28;20037;-41
2023/12/18 11:46:09;;;;;;;36.53;14.25;;;8.40;99.90;;;;;;5052617;28;20063;-41
2023/12/18 11:48:35;;;;;;;26.92;14.50;;;8.40;99.90;;;;;;5053843;28;20071;-41
2023/12/18 11:51:02;;;;;;;30.45;12.25;;;8.40;99.90;;;;;;5051831;28;20091;-41
2023/12/18 11:53:35;;;;;;;35.22;13.75;;;8.40;99.90;;;;;;5054103;28;20512;-41
2023/12/18 11:56:08;;;;;;;20.77;10.80;;;8.40;99.90;;;;;;5056183;28;20040;-41
2023/12/18 11:58:35;;;;;;;27.63;13.75;;;8.40;99.90;;;;;;5056221;28;20517;-41
2023/12/18 12:01:02;;;;;;;29.00;11.27;;;8.40;99.90;;;;;;5056436;28;20061;-41
2023/12/18 12:03:28;;;;;;;18.02;9.70;;;8.40;99.90;;;;;;5056276;28;20494;-41
2023/12/18 12:05:56;;;;;;;22.73;11.32;;;8.40;99.90;;;;;;5056381;28;20506;-41
2023/12/18 12:08:22;;;;;;;30.02;12.27;;;8.50;99.90;;;;;;5055387;28;20052;-41
2023/12/18 12:10:49;;;;;;;23.63;10.77;;;8.50;99.90;;;;;;5055283;28;20067;-41
2023/12/18 12:13:18;;;;;;;28.02;13.00;;;8.50;99.90;;;;;;5056268;28;20483;-41
2023/12/18 12:15:54;;;;;;;31.10;13.77;;;8.50;99.90;;;;;;5056180;28;20053;-42
2023/12/18 12:18:22;;;;;;;13.88;9.02;;;8.60;99.90;;;;;;5055768;28;20053;-41
2023/12/18 12:20:47;;;;;;;28.63;13.57;;;8.60;99.90;;;;;;5054867;28;20049;-41
2023/12/18 12:23:13;;;;;;;24.75;10.48;;;8.60;99.90;;;;;;5056052;28;20474;-42
2023/12/18 12:25:40;;;;;;;28.40;12.18;;;8.70;99.90;;;;;;5054781;28;20047;-41
2023/12/18 12:28:06;;;;;;;28.58;12.60;;;8.60;99.90;;;;;;5054494;28;20557;-42
2023/12/18 12:30:33;;;;;;;33.13;13.85;;;8.60;99.90;;;;;;5038362;28;20498;-42
2023/12/18 12:32:59;;;;;;;21.38;10.43;;;8.60;99.90;;;;;;5056737;28;20383;-42
2023/12/18 12:35:25;;;;;;;24.85;14.23;;;8.60;99.90;;;;;;5056398;28;20049;-42
2023/12/18 12:37:51;;;;;;;22.85;10.73;;;8.60;99.90;;;;;;5055852;28;20509;-42
2023/12/18 12:40:17;;;;;;;25.38;11.73;;;8.60;99.90;;;;;;5055780;28;20135;-41